Time;durP1;ratioP1;P1;durP2;ratioP2;P2;SDS_P1;SDS_P2;PMS_P1;PMS_P2;Temp;Humidity;BMP_temperature;BMP_pressure;BME280_temperature;BME280_humidity;BME280_pressure;Samples;Min_cycle;Max_cycle;Signal;HPM_P1;HPM_P2
2022/03/24 00:01:57;;;;;;;11.07;5.28;;;;;;;-5.00;72.67;99789.16;4939219;29;20071;-80
2022/03/24 00:04:23;;;;;;;11.30;6.05;;;;;;;-4.96;72.34;99796.97;4939171;29;20040;-80
2022/03/24 00:06:49;;;;;;;12.68;5.38;;;;;;;-4.96;72.24;99791.75;4922161;29;20083;-79
2022/03/24 00:09:15;;;;;;;12.43;5.22;;;;;;;-5.08;72.98;99791.84;4969659;28;20526;-80
2022/03/24 00:11:41;;;;;;;9.65;4.97;;;;;;;-5.06;73.08;99800.53;4938469;29;20047;-81
2022/03/24 00:14:08;;;;;;;9.10;4.43;;;;;;;-5.01;72.48;99800.47;4948707;29;20043;-80
2022/03/24 00:16:34;;;;;;;9.05;4.90;;;;;;;-5.03;72.71;99795.31;4970681;28;20046;-79
2022/03/24 00:19:01;;;;;;;7.97;4.68;;;;;;;-5.04;72.54;99792.69;4955088;29;20053;-80
2022/03/24 00:21:27;;;;;;;8.70;5.03;;;;;;;-5.05;72.58;99790.97;4953025;29;20076;-80
2022/03/24 00:23:53;;;;;;;15.65;6.35;;;;;;;-5.03;72.34;99794.44;4938355;29;20055;-80
2022/03/24 00:26:19;;;;;;;11.88;5.72;;;;;;;-5.05;72.47;99783.16;4939796;28;20060;-80
2022/03/24 00:28:45;;;;;;;14.25;6.78;;;;;;;-5.00;72.33;99797.00;4954198;29;20051;-80
2022/03/24 00:31:11;;;;;;;10.93;5.75;;;;;;;-5.05;71.89;99796.19;4939437;29;20415;-80
2022/03/24 00:33:38;;;;;;;8.27;5.10;;;;;;;-5.19;72.05;99773.75;4937802;29;20044;-80
2022/03/24 00:36:05;;;;;;;10.85;5.53;;;;;;;-5.04;72.04;99797.91;4921662;29;20585;-79
2022/03/24 00:38:31;;;;;;;8.00;4.80;;;;;;;-5.12;71.95;99796.22;4953324;29;20130;-81
2022/03/24 00:40:57;;;;;;;9.43;5.68;;;;;;;-5.06;71.51;99794.47;4938187;29;20044;-80
2022/03/24 00:43:24;;;;;;;11.52;5.38;;;;;;;-5.03;71.32;99804.88;4922052;29;20095;-80
2022/03/24 00:45:51;;;;;;;12.77;5.50;;;;;;;-5.07;71.46;99801.44;4937550;29;20043;-81
2022/03/24 00:48:17;;;;;;;10.18;5.72;;;;;;;-5.12;71.38;99790.16;4938505;29;20043;-80
2022/03/24 00:50:44;;;;;;;15.88;5.82;;;;;;;-5.09;71.74;99797.94;4937923;29;20048;-80
2022/03/24 00:53:11;;;;;;;11.27;4.85;;;;;;;-5.07;71.57;99780.56;4952950;28;20047;-80
2022/03/24 00:55:39;;;;;;;8.82;5.32;;;;;;;-5.05;71.37;99786.63;4921402;29;20047;-80
2022/03/24 00:58:05;;;;;;;9.50;5.70;;;;;;;-5.09;71.67;99781.47;4953031;29;20132;-80
2022/03/24 01:00:31;;;;;;;8.18;5.15;;;;;;;-5.14;71.58;99787.59;4952980;29;20062;-78
2022/03/24 01:02:58;;;;;;;11.05;5.90;;;;;;;-5.18;71.41;99790.25;4921149;29;20086;-79
2022/03/24 01:05:27;;;;;;;7.00;4.25;;;;;;;-5.18;71.57;99785.88;4936707;29;20047;-80
2022/03/24 01:07:55;;;;;;;8.68;5.53;;;;;;;-5.22;71.16;99799.81;4952870;29;20048;-79
2022/03/24 01:10:24;;;;;;;11.23;5.35;;;;;;;-5.26;71.81;99805.09;4921412;29;20099;-81
2022/03/24 01:12:50;;;;;;;13.07;5.93;;;;;;;-5.31;71.42;99794.66;4938089;29;20530;-79
2022/03/24 01:15:19;;;;;;;8.75;5.32;;;;;;;-5.32;71.68;99798.16;4937945;29;20510;-80
2022/03/24 01:17:47;;;;;;;10.65;5.43;;;;;;;-5.31;71.89;99789.47;4937748;29;20044;-80
2022/03/24 01:20:14;;;;;;;10.10;4.72;;;;;;;-5.32;72.06;99795.56;4905038;29;20085;-79
2022/03/24 01:22:41;;;;;;;10.00;5.03;;;;;;;-5.33;72.16;99795.59;4938038;29;20039;-81
2022/03/24 01:25:08;;;;;;;7.90;4.85;;;;;;;-5.31;72.07;99799.03;4937517;28;20428;-81
2022/03/24 01:27:34;;;;;;;9.85;4.93;;;;;;;-5.38;71.85;99798.19;4952692;29;20059;-80
2022/03/24 01:30:01;;;;;;;11.43;5.63;;;;;;;-5.30;71.82;99801.63;4952555;29;20614;-80
2022/03/24 01:32:28;;;;;;;9.02;5.43;;;;;;;-5.36;71.76;99788.66;4920371;29;20047;-80
2022/03/24 01:34:55;;;;;;;11.50;5.75;;;;;;;-5.24;71.78;99798.97;4936686;29;20051;-80
2022/03/24 01:37:23;;;;;;;10.05;5.80;;;;;;;-5.23;71.51;99792.88;4920284;29;20499;-79
2022/03/24 01:39:50;;;;;;;9.48;5.43;;;;;;;-5.28;71.29;99791.19;4920356;29;20047;-86
2022/03/24 01:42:18;;;;;;;15.55;5.25;;;;;;;-5.31;71.70;99789.47;4904858;29;20158;-80
2022/03/24 01:44:48;;;;;;;10.57;5.70;;;;;;;-5.30;71.65;99791.22;4910152;29;20050;-80
2022/03/24 01:47:16;;;;;;;12.25;5.40;;;;;;;-5.31;72.03;99789.47;4945737;29;20439;-82
2022/03/24 01:49:47;;;;;;;9.02;4.82;;;;;;;-5.33;72.23;99786.03;4940043;29;20063;-81
2022/03/24 01:52:18;;;;;;;8.18;5.13;;;;;;;-5.35;72.45;99787.75;4904868;29;20380;-82
2022/03/24 01:54:47;;;;;;;11.57;4.70;;;;;;;-5.35;72.50;99797.31;4952044;29;20134;-80
2022/03/24 01:57:15;;;;;;;13.63;6.20;;;;;;;-5.38;72.54;99793.00;4935875;29;20050;-79
2022/03/24 01:59:43;;;;;;;13.63;6.00;;;;;;;-5.39;72.86;99793.88;4904248;29;20067;-80
2022/03/24 02:02:10;;;;;;;11.63;7.22;;;;;;;-5.42;72.67;99786.09;4935444;29;20098;-79
2022/03/24 02:04:37;;;;;;;24.10;7.50;;;;;;;-5.46;72.79;99779.16;4936653;29;20074;-80
2022/03/24 02:07:07;;;;;;;16.77;7.15;;;;;;;-5.41;72.56;99795.66;4904186;29;20526;-80
2022/03/24 02:09:35;;;;;;;19.23;6.70;;;;;;;-5.38;72.54;99795.59;4951828;29;20063;-79
2022/03/24 02:12:04;;;;;;;15.80;6.72;;;;;;;-5.48;72.25;99796.56;4919856;29;20146;-80
2022/03/24 02:14:30;;;;;;;15.25;7.45;;;;;;;-5.49;72.72;99787.00;4936584;29;20483;-80
2022/03/24 02:16:57;;;;;;;13.95;7.70;;;;;;;-5.51;72.46;99780.97;4919865;29;20047;-80
2022/03/24 02:19:25;;;;;;;20.65;7.45;;;;;;;-5.48;72.29;99788.75;4920625;29;20067;-81
2022/03/24 02:21:54;;;;;;;26.27;8.20;;;;;;;-5.50;72.34;99793.97;4904049;29;20054;-80
2022/03/24 02:24:25;;;;;;;20.23;8.63;;;;;;;-5.53;72.05;99780.09;4951431;29;20048;-80
2022/03/24 02:26:52;;;;;;;25.92;8.75;;;;;;;-5.50;72.19;99782.69;4936904;29;20051;-77
2022/03/24 02:29:20;;;;;;;20.98;9.63;;;;;;;-5.46;71.88;99792.19;4938469;29;20089;-80
2022/03/24 02:31:49;;;;;;;20.55;9.10;;;;;;;-5.43;72.27;99789.56;4922195;29;20438;-79
2022/03/24 02:37:07;;;;;;;17.65;8.73;;;;;;;-5.44;72.07;99777.44;4955414;29;20047;-81
2022/03/24 02:39:38;;;;;;;20.83;9.68;;;;;;;-5.38;72.29;99788.69;4938374;29;20412;-80
2022/03/24 02:42:05;;;;;;;22.00;8.40;;;;;;;-5.34;72.23;99784.31;4954267;29;20142;-78
2022/03/24 02:44:31;;;;;;;22.33;8.80;;;;;;;-5.32;71.97;99782.53;4937789;29;20043;-80
2022/03/24 02:47:02;;;;;;;16.00;8.43;;;;;;;-5.30;71.64;99774.69;4938075;29;20043;-78
2022/03/24 02:49:30;;;;;;;18.05;8.77;;;;;;;-5.36;71.76;99765.19;4955657;29;20047;-80
2022/03/24 02:51:59;;;;;;;13.80;7.20;;;;;;;-5.25;71.52;99772.94;4921980;29;20047;-80
2022/03/24 02:54:26;;;;;;;14.90;8.38;;;;;;;-5.19;70.95;99778.94;4938077;29;20039;-82
2022/03/24 02:56:53;;;;;;;18.25;9.27;;;;;;;-5.22;71.03;99773.75;4922351;29;20142;-79
2022/03/24 02:59:19;;;;;;;17.85;9.02;;;;;;;-5.26;70.99;99764.25;4955339;29;20160;-79
2022/03/24 03:01:53;;;;;;;24.38;10.75;;;;;;;-5.15;71.11;99775.44;4937975;29;20159;-80
2022/03/24 03:04:19;;;;;;;24.75;12.75;;;;;;;-5.04;70.77;99777.94;4938012;29;20078;-79
2022/03/24 03:06:45;;;;;;;24.27;12.88;;;;;;;-5.05;70.33;99770.97;4955016;29;20047;-80
2022/03/24 03:09:14;;;;;;;29.10;14.18;;;;;;;-5.01;70.19;99782.25;4954942;29;20043;-80
2022/03/24 03:11:43;;;;;;;33.03;16.92;;;;;;;-4.98;70.18;99766.56;4937962;29;20182;-82
2022/03/24 03:14:10;;;;;;;42.17;19.77;;;;;;;-4.80;70.12;99787.25;4954960;28;20046;-80
2022/03/24 03:16:36;;;;;;;47.97;22.17;;;;;;;-4.77;69.75;99787.22;4969814;28;20130;-82
2022/03/24 03:19:03;;;;;;;43.95;23.40;;;;;;;-4.73;69.37;99786.28;4922312;29;20222;-82
2022/03/24 03:21:30;;;;;;;60.35;27.42;;;;;;;-4.61;69.41;99787.91;4937547;29;20506;-80
2022/03/24 03:23:56;;;;;;;62.15;31.83;;;;;;;-4.57;68.76;99793.94;4921998;29;20142;-81
2022/03/24 03:26:23;;;;;;;84.53;39.22;;;;;;;-4.50;68.33;99791.25;4953247;28;20059;-78
2022/03/24 03:28:52;;;;;;;89.25;40.60;;;;;;;-4.50;68.17;99786.03;4937880;29;20051;-79
2022/03/24 03:31:21;;;;;;;98.97;43.53;;;;;;;-4.55;67.94;99787.84;4937585;29;20070;-85
2022/03/24 03:33:47;;;;;;;100.45;45.90;;;;;;;-4.47;68.45;99788.59;4921759;29;20066;-83
2022/03/24 03:36:13;;;;;;;106.38;48.67;;;;;;;-4.43;68.09;99790.28;4937683;29;20550;-79
2022/03/24 03:38:40;;;;;;;93.15;43.53;;;;;;;-4.32;67.50;99794.53;4937526;29;20039;-79
2022/03/24 03:41:06;;;;;;;94.97;44.72;;;;;;;-4.34;67.63;99791.91;4953214;29;20043;-81
2022/03/24 03:43:32;;;;;;;109.78;47.05;;;;;;;-4.26;67.41;99794.44;4937273;29;20045;-81
2022/03/24 03:45:59;;;;;;;93.68;42.17;;;;;;;-4.39;67.24;99796.34;4937174;29;20047;-77
2022/03/24 03:48:25;;;;;;;101.32;43.55;;;;;;;-4.49;67.41;99785.13;4921156;29;20095;-78
2022/03/24 03:50:51;;;;;;;93.78;42.78;;;;;;;-4.31;67.63;99797.09;4921521;29;20557;-78
2022/03/24 03:53:17;;;;;;;147.77;64.40;;;;;;;-4.14;67.82;99789.03;4939747;29;20043;-80
2022/03/24 03:55:43;;;;;;;83.35;35.35;;;;;;;-4.09;66.89;99781.16;4972811;28;20419;-80
2022/03/24 03:58:11;;;;;;;89.18;37.67;;;;;;;-3.96;67.02;99782.72;4940057;29;20043;-76
2022/03/24 04:00:58;;;;;;;97.50;42.08;;;;;;;-3.76;66.83;99793.75;4956116;29;20043;-83
2022/03/24 04:03:25;;;;;;;108.30;44.70;;;;;;;-3.70;66.73;99796.25;4958864;29;20072;-79
2022/03/24 04:05:53;;;;;;;115.35;42.40;;;;;;;-3.79;65.79;99785.97;4923958;29;20046;-85
2022/03/24 04:08:20;;;;;;;154.25;51.40;;;;;;;-3.79;66.47;99792.94;4963469;29;20082;-91
2022/03/24 04:10:48;;;;;;;169.65;55.70;;;;;;;-3.72;65.70;99795.44;4947686;29;20482;-85
2022/03/24 04:13:14;;;;;;;154.13;54.35;;;;;;;-3.57;65.34;99785.59;4976740;28;20606;-91
2022/03/24 04:15:40;;;;;;;119.43;44.75;;;;;;;-3.67;64.82;99790.13;4960094;29;20055;-83
2022/03/24 04:18:09;;;;;;;153.60;55.03;;;;;;;-3.60;65.27;99785.69;4938686;29;20491;-79
2022/03/24 04:20:35;;;;;;;177.32;60.20;;;;;;;-3.50;64.92;99795.97;4955021;29;20178;-79
2022/03/24 04:23:03;;;;;;;159.95;55.83;;;;;;;-3.49;64.43;99789.00;4956473;29;20124;-81
2022/03/24 04:25:29;;;;;;;142.68;45.85;;;;;;;-3.44;64.93;99782.78;4937373;28;20082;-80
2022/03/24 04:27:56;;;;;;;124.40;47.58;;;;;;;-3.39;64.45;99790.53;4940688;29;20057;-81
2022/03/24 04:30:22;;;;;;;111.93;40.28;;;;;;;-3.34;64.25;99787.88;4957900;29;20039;-80
2022/03/24 04:32:49;;;;;;;101.45;40.75;;;;;;;-3.35;64.50;99776.53;4924309;29;20047;-84
2022/03/24 04:35:15;;;;;;;114.55;48.13;;;;;;;-3.28;63.96;99787.75;4925130;29;20130;-82
2022/03/24 04:37:43;;;;;;;117.22;46.33;;;;;;;-3.20;64.34;99783.25;4957998;29;20109;-80
2022/03/24 04:40:11;;;;;;;100.93;42.53;;;;;;;-3.17;63.60;99786.69;4972245;28;20050;-79
2022/03/24 04:42:39;;;;;;;94.93;42.87;;;;;;;-3.12;64.03;99791.84;4940123;29;20043;-81
2022/03/24 04:45:06;;;;;;;119.53;47.17;;;;;;;-3.20;63.58;99796.31;4956511;29;20043;-80
2022/03/24 04:47:34;;;;;;;102.88;43.08;;;;;;;-3.26;63.61;99797.31;4924607;29;20051;-80
2022/03/24 04:50:00;;;;;;;91.70;39.83;;;;;;;-3.24;64.08;99797.28;4958003;29;20049;-81
2022/03/24 04:52:25;;;;;;;89.38;36.28;;;;;;;-3.13;63.74;99799.72;4946131;28;20043;-80
2022/03/24 04:54:51;;;;;;;66.63;32.17;;;;;;;-3.07;63.64;99803.09;4931108;29;20078;-79
2022/03/24 04:57:17;;;;;;;75.70;33.15;;;;;;;-2.92;63.85;99801.97;4917481;29;20047;-79
2022/03/24 04:59:43;;;;;;;70.20;32.53;;;;;;;-3.01;63.31;99802.09;4966239;29;20134;-84
2022/03/24 05:02:15;;;;;;;71.18;32.50;;;;;;;-2.81;63.06;99813.09;4941442;29;20125;-78
2022/03/24 05:04:45;;;;;;;57.75;29.08;;;;;;;-2.78;62.76;99809.56;4926869;29;20063;-79
2022/03/24 05:07:11;;;;;;;60.03;27.40;;;;;;;-2.88;62.29;99816.69;4960294;29;20475;-79
2022/03/24 05:09:37;;;;;;;75.20;30.88;;;;;;;-2.86;62.52;99821.91;4941980;29;20047;-80
2022/03/24 05:12:04;;;;;;;57.70;27.17;;;;;;;-2.73;62.55;99826.88;4924795;29;20430;-80
2022/03/24 05:14:31;;;;;;;65.28;30.40;;;;;;;-2.62;62.33;99831.06;4940516;29;20051;-82
2022/03/24 05:16:58;;;;;;;71.47;33.35;;;;;;;-2.52;61.73;99832.59;4939933;29;20098;-84
2022/03/24 05:19:24;;;;;;;71.80;32.63;;;;;;;-2.42;61.65;99828.94;4939869;29;20571;-85
2022/03/24 05:21:50;;;;;;;70.10;32.58;;;;;;;-2.49;61.17;99837.78;4924184;29;20039;-82
2022/03/24 05:24:16;;;;;;;65.30;30.70;;;;;;;-2.44;61.36;99838.56;4939868;29;20106;-83
2022/03/24 05:26:42;;;;;;;81.65;34.70;;;;;;;-2.32;61.44;99847.94;4942706;29;20060;-83
2022/03/24 05:29:08;;;;;;;78.13;31.23;;;;;;;-2.34;61.25;99840.09;4938467;29;20123;-81
2022/03/24 05:31:34;;;;;;;92.03;34.97;;;;;;;-2.43;61.01;99835.06;4948976;29;20048;-80
2022/03/24 05:34:00;;;;;;;71.72;33.28;;;;;;;-2.22;61.14;99842.50;4921358;29;20076;-83
2022/03/24 05:36:26;;;;;;;91.05;34.42;;;;;;;-2.06;61.04;99836.94;4934366;29;20070;-82
2022/03/24 05:38:52;;;;;;;72.35;31.58;;;;;;;-1.91;60.56;99844.47;4928938;29;20043;-84
2022/03/24 05:41:19;;;;;;;71.50;31.58;;;;;;;-1.91;60.19;99841.88;4944499;29;20095;-82
2022/03/24 05:44:02;;;;;;;68.85;28.98;;;;;;;-1.91;60.15;99841.88;4920491;29;20420;-82
2022/03/24 05:46:41;;;;;;;77.63;30.85;;;;;;;-1.93;60.38;99840.16;4939865;29;20047;-83
2022/03/24 05:49:09;;;;;;;58.53;26.75;;;;;;;-1.92;60.05;99834.88;4922745;29;20059;-80
2022/03/24 05:51:55;;;;;;;62.50;30.98;;;;;;;-1.98;60.62;99837.66;4907000;29;20178;-83
2022/03/24 05:54:21;;;;;;;78.00;33.35;;;;;;;-1.77;60.63;99845.06;4960027;28;20039;-81
2022/03/24 05:56:48;;;;;;;78.47;32.95;;;;;;;-1.54;59.40;99844.53;4945672;29;20461;-80
2022/03/24 05:59:15;;;;;;;71.60;29.02;;;;;;;-1.46;59.35;99844.34;4929792;29;20087;-82
2022/03/24 06:01:44;;;;;;;74.85;32.90;;;;;;;-1.36;59.06;99840.59;4942184;29;20415;-82
2022/03/24 06:04:14;;;;;;;74.18;33.13;;;;;;;-1.16;59.63;99852.41;4943632;29;20133;-81
2022/03/24 06:06:41;;;;;;;60.03;32.25;;;;;;;-1.10;58.88;99852.25;4928199;29;20054;-81
2022/03/24 06:09:07;;;;;;;56.72;28.88;;;;;;;-1.06;58.58;99853.88;4928137;29;20043;-79
2022/03/24 06:11:35;;;;;;;57.15;29.35;;;;;;;-0.78;58.49;99844.44;4911039;29;20138;-81
2022/03/24 06:14:08;;;;;;;62.45;28.13;;;;;;;-0.49;57.97;99853.28;4913430;29;20039;-80
2022/03/24 06:16:35;;;;;;;57.53;28.35;;;;;;;-0.37;57.34;99855.59;4945629;29;20054;-81
2022/03/24 06:19:01;;;;;;;60.42;27.13;;;;;;;-0.26;56.91;99852.69;4912217;29;20048;-81
2022/03/24 06:21:28;;;;;;;60.92;27.08;;;;;;;-0.22;57.01;99843.81;4912305;29;20097;-80
2022/03/24 06:23:54;;;;;;;62.05;28.98;;;;;;;-0.14;56.62;99851.47;4958804;28;20039;-81
2022/03/24 06:26:21;;;;;;;59.67;28.20;;;;;;;-0.14;56.29;99846.22;4954328;28;20052;-82
2022/03/24 06:28:48;;;;;;;69.28;29.75;;;;;;;-0.10;56.47;99847.84;4945467;28;20050;-80
2022/03/24 06:31:14;;;;;;;62.53;28.00;;;;;;;-0.11;56.78;99839.13;4944018;29;20078;-82
2022/03/24 06:33:41;;;;;;;69.85;30.85;;;;;;;-0.11;57.02;99851.41;4927685;29;20482;-81
2022/03/24 06:36:09;;;;;;;64.85;30.27;;;;;;;-0.05;56.59;99856.47;4942185;29;20126;-81
2022/03/24 06:38:37;;;;;;;59.75;28.90;;;;;;;-0.03;56.11;99849.41;4947483;28;20047;-81
2022/03/24 06:41:05;;;;;;;39.88;17.95;;;;;;;-0.11;55.99;99864.53;4949990;29;20138;-85
2022/03/24 06:43:34;;;;;;;32.67;16.80;;;;;;;-0.09;56.13;99849.56;4959953;28;20059;-81
2022/03/24 06:46:06;;;;;;;30.33;14.88;;;;;;;-0.21;56.42;99845.53;4932137;29;20047;-83
2022/03/24 06:48:32;;;;;;;36.10;19.33;;;;;;;-0.23;56.76;99851.72;4962006;28;20047;-82
2022/03/24 06:50:58;;;;;;;35.67;17.25;;;;;;;-0.16;56.55;99848.03;4952843;29;20051;-82
2022/03/24 06:53:24;;;;;;;23.75;13.50;;;;;;;-0.39;57.10;99841.63;4953947;28;20035;-82
2022/03/24 06:55:51;;;;;;;24.38;11.57;;;;;;;-0.41;57.34;99848.72;4983057;28;20046;-81
2022/03/24 06:58:17;;;;;;;16.38;8.60;;;;;;;-0.34;56.97;99844.13;4936203;29;20392;-82
2022/03/24 07:00:42;;;;;;;13.25;7.72;;;;;;;-0.15;56.51;99852.34;4929158;29;20093;-81
2022/03/24 07:03:10;;;;;;;15.85;8.27;;;;;;;-0.04;56.23;99848.56;4960087;28;20500;-82
2022/03/24 07:05:37;;;;;;;13.45;7.18;;;;;;;0.35;55.86;99843.00;4955855;28;20394;-83
2022/03/24 07:08:04;;;;;;;16.75;7.38;;;;;;;0.38;55.03;99849.97;4975626;28;20039;-85
2022/03/24 07:10:31;;;;;;;13.73;6.72;;;;;;;0.49;54.55;99847.88;4941681;29;20461;-82
2022/03/24 07:12:57;;;;;;;13.32;6.78;;;;;;;0.68;54.69;99851.63;4926361;29;20122;-82
2022/03/24 07:15:25;;;;;;;10.93;6.18;;;;;;;0.70;54.39;99846.31;4915596;29;20419;-82
2022/03/24 07:17:51;;;;;;;14.65;6.82;;;;;;;0.94;54.32;99861.34;4937258;29;20184;-80
2022/03/24 07:20:17;;;;;;;10.32;6.03;;;;;;;1.32;53.94;99855.72;4948452;28;20526;-81
2022/03/24 07:22:46;;;;;;;13.93;7.05;;;;;;;1.58;52.82;99847.75;4926927;29;20035;-82
2022/03/24 07:25:12;;;;;;;11.45;6.60;;;;;;;1.66;53.07;99856.25;4944483;28;20059;-82
2022/03/24 07:27:38;;;;;;;11.77;6.68;;;;;;;1.79;52.09;99843.47;4911526;29;20063;-83
2022/03/24 07:30:05;;;;;;;13.02;6.85;;;;;;;1.70;52.11;99842.03;4931878;29;20133;-79
2022/03/24 07:32:32;;;;;;;10.55;6.32;;;;;;;1.67;52.05;99844.78;4953411;29;20538;-80
2022/03/24 07:34:58;;;;;;;10.73;6.70;;;;;;;1.74;52.07;99853.34;4953297;28;20051;-81
2022/03/24 07:37:24;;;;;;;11.75;6.55;;;;;;;1.63;51.43;99837.91;4937385;29;20067;-80
2022/03/24 07:39:50;;;;;;;10.57;6.82;;;;;;;1.68;51.88;99838.59;4937400;29;20078;-81
2022/03/24 07:42:16;;;;;;;11.40;6.03;;;;;;;1.76;51.95;99845.38;4954705;29;20522;-81
2022/03/24 07:44:42;;;;;;;11.90;7.25;;;;;;;1.81;51.96;99843.44;4921736;29;20503;-80
2022/03/24 07:47:08;;;;;;;9.75;6.22;;;;;;;1.77;52.12;99849.72;4954896;29;20043;-82
2022/03/24 07:49:34;;;;;;;12.35;5.80;;;;;;;1.93;51.17;99848.25;4952705;28;20047;-82
2022/03/24 07:52:08;;;;;;;9.30;6.30;;;;;;;1.61;51.65;99847.63;4937026;29;20094;-79
2022/03/24 07:54:50;;;;;;;9.80;6.45;;;;;;;1.35;51.83;99837.13;4937338;29;20106;-80
2022/03/24 07:57:15;;;;;;;11.45;6.00;;;;;;;1.50;52.29;99831.34;4969062;28;20074;-79
2022/03/24 07:59:41;;;;;;;9.85;6.20;;;;;;;1.70;52.11;99839.41;4936902;29;20071;-77
2022/03/24 08:02:07;;;;;;;8.70;5.75;;;;;;;1.59;51.99;99838.94;4954941;28;20039;-78
2022/03/24 08:04:34;;;;;;;11.07;6.20;;;;;;;1.87;52.71;99838.78;4940255;29;20533;-82
2022/03/24 08:07:00;;;;;;;12.48;6.35;;;;;;;2.01;51.57;99835.66;4956737;29;20039;-77
2022/03/24 08:09:26;;;;;;;22.70;6.03;;;;;;;2.07;51.40;99838.06;4924985;29;20438;-81
2022/03/24 08:11:52;;;;;;;12.52;6.32;;;;;;;2.42;51.26;99836.72;4924485;29;20055;-83
2022/03/24 08:14:17;;;;;;;8.95;6.20;;;;;;;2.65;50.49;99832.31;4940132;29;20059;-83
2022/03/24 08:16:45;;;;;;;9.00;5.97;;;;;;;2.71;50.30;99831.19;4939772;29;20155;-82
2022/03/24 08:19:11;;;;;;;8.27;5.90;;;;;;;2.72;50.25;99832.94;4971887;28;20071;-79
2022/03/24 08:21:37;;;;;;;11.63;6.22;;;;;;;2.67;50.70;99833.97;4940022;29;20555;-81
2022/03/24 08:24:05;;;;;;;10.73;6.30;;;;;;;2.80;50.69;99836.13;4955422;29;20047;-80
2022/03/24 08:26:30;;;;;;;8.52;6.05;;;;;;;2.81;49.77;99838.69;4957661;28;20059;-80
2022/03/24 08:28:57;;;;;;;14.52;6.60;;;;;;;2.85;50.00;99839.44;4924314;29;20058;-79
2022/03/24 08:31:24;;;;;;;11.35;6.82;;;;;;;2.73;50.46;99834.66;4928502;29;20086;-78
2022/03/24 08:33:49;;;;;;;12.32;6.53;;;;;;;2.78;49.86;99835.31;4920908;29;20097;-82
2022/03/24 08:36:15;;;;;;;10.77;6.45;;;;;;;2.97;49.96;99838.06;4905368;29;20643;-79
2022/03/24 08:38:41;;;;;;;11.05;6.22;;;;;;;3.44;49.95;99825.50;4921441;29;20142;-79
2022/03/24 08:41:08;;;;;;;8.73;6.13;;;;;;;3.43;49.16;99831.72;4921085;29;20048;-80
2022/03/24 08:43:34;;;;;;;17.55;6.10;;;;;;;3.58;48.63;99846.94;4938094;29;20056;-82
2022/03/24 08:46:00;;;;;;;9.38;6.20;;;;;;;3.63;48.48;99839.66;4936610;29;20487;-80
2022/03/24 08:48:26;;;;;;;8.05;5.13;;;;;;;3.59;48.05;99839.84;4936909;29;20070;-83
2022/03/24 08:50:52;;;;;;;8.50;5.50;;;;;;;3.39;48.43;99836.28;4939028;29;20043;-82
2022/03/24 08:53:18;;;;;;;9.30;6.57;;;;;;;3.50;48.76;99838.47;4941226;29;20047;-81
2022/03/24 08:55:44;;;;;;;10.45;6.07;;;;;;;3.67;48.30;99836.88;4912172;29;20047;-82
2022/03/24 08:58:10;;;;;;;11.73;6.05;;;;;;;3.55;48.67;99836.47;4919429;29;20067;-80
2022/03/24 09:00:36;;;;;;;9.38;6.45;;;;;;;3.64;48.24;99836.06;4918807;29;20044;-78
2022/03/24 09:03:02;;;;;;;8.65;6.15;;;;;;;3.61;47.94;99830.94;4919012;29;20453;-79
2022/03/24 09:05:28;;;;;;;8.60;6.35;;;;;;;3.45;48.48;99835.16;4933407;29;20044;-79
2022/03/24 09:07:54;;;;;;;9.38;6.20;;;;;;;3.55;48.14;99831.19;4917514;29;20468;-78
2022/03/24 09:10:22;;;;;;;9.15;6.32;;;;;;;3.88;48.39;99830.63;4918733;29;20062;-79
2022/03/24 09:12:48;;;;;;;12.20;6.75;;;;;;;4.08;47.46;99833.22;4917584;29;20055;-80
2022/03/24 09:15:18;;;;;;;10.77;6.80;;;;;;;4.35;47.40;99833.75;4916873;29;20419;-80
2022/03/24 09:17:45;;;;;;;10.77;6.80;;;;;;;4.31;46.53;99833.97;4919276;29;20504;-79
2022/03/24 09:20:18;;;;;;;11.30;6.35;;;;;;;4.41;46.89;99837.06;4905862;29;20055;-78
2022/03/24 09:22:47;;;;;;;9.43;6.15;;;;;;;4.59;46.55;99829.09;4936684;29;20101;-80
2022/03/24 09:25:14;;;;;;;11.25;6.55;;;;;;;4.68;46.82;99825.13;4901663;29;20155;-79
2022/03/24 09:27:41;;;;;;;10.02;6.47;;;;;;;4.46;46.28;99817.34;4933258;29;20070;-80
2022/03/24 09:30:08;;;;;;;7.20;6.10;;;;;;;4.68;46.25;99814.53;4901137;29;20404;-79
2022/03/24 09:32:35;;;;;;;10.30;6.53;;;;;;;4.62;46.30;99823.63;4916956;29;20056;-79
2022/03/24 09:35:03;;;;;;;9.60;6.00;;;;;;;4.70;46.41;99817.09;4917131;29;20048;-80
2022/03/24 09:37:29;;;;;;;12.77;6.07;;;;;;;4.70;46.07;99818.00;4933397;29;20044;-78
2022/03/24 09:39:55;;;;;;;12.13;6.93;;;;;;;5.07;46.18;99816.16;4916922;29;20521;-79
2022/03/24 09:42:23;;;;;;;13.18;7.20;;;;;;;4.85;45.84;99816.38;4917320;29;20508;-81
2022/03/24 09:44:50;;;;;;;10.63;6.80;;;;;;;4.72;46.17;99809.97;4901194;29;20393;-79
2022/03/24 09:47:16;;;;;;;8.60;6.25;;;;;;;4.59;46.47;99813.22;4917430;29;20044;-79
2022/03/24 09:49:43;;;;;;;10.23;6.88;;;;;;;5.08;46.32;99818.75;4917279;29;20389;-80
2022/03/24 09:52:11;;;;;;;11.70;6.75;;;;;;;4.90;45.81;99809.06;4916855;29;20048;-80
2022/03/24 09:54:39;;;;;;;10.02;7.50;;;;;;;5.13;45.94;99802.63;4916717;29;20047;-79
2022/03/24 09:57:07;;;;;;;12.80;7.20;;;;;;;5.24;45.92;99791.47;4917314;29;20048;-78
2022/03/24 09:59:33;;;;;;;11.80;7.18;;;;;;;5.20;45.57;99824.38;4917230;29;20043;-79
2022/03/24 10:02:01;;;;;;;12.18;7.10;;;;;;;5.10;45.58;99808.91;4917586;29;20369;-78
2022/03/24 10:04:28;;;;;;;9.87;7.43;;;;;;;5.05;46.04;99807.44;4900453;29;20068;-79
2022/03/24 10:07:00;;;;;;;11.00;7.18;;;;;;;5.41;45.58;99804.72;4916372;29;20056;-78
2022/03/24 10:09:40;;;;;;;11.65;7.15;;;;;;;5.48;45.19;99810.56;4932208;29;20488;-78
2022/03/24 10:12:08;;;;;;;9.95;6.40;;;;;;;5.51;45.27;99805.97;4916468;29;20048;-79
2022/03/24 10:14:35;;;;;;;12.68;7.90;;;;;;;5.59;45.27;99809.06;4916515;29;20241;-79
2022/03/24 10:17:09;;;;;;;11.50;7.68;;;;;;;5.63;44.51;99798.31;4916580;29;20392;-80
2022/03/24 10:19:37;;;;;;;15.65;7.57;;;;;;;5.92;44.37;99805.59;4932275;29;20060;-78
2022/03/24 10:22:10;;;;;;;10.65;7.38;;;;;;;6.05;44.54;99804.00;4916607;29;20472;-79
2022/03/24 10:24:41;;;;;;;11.55;7.50;;;;;;;6.12;44.19;99806.31;4931662;29;20051;-80
2022/03/24 10:27:08;;;;;;;11.30;8.18;;;;;;;6.21;44.19;99806.69;4918073;29;20146;-81
2022/03/24 10:29:35;;;;;;;13.00;8.02;;;;;;;6.22;43.94;99796.94;4887719;29;20062;-78
2022/03/24 10:32:11;;;;;;;13.75;7.70;;;;;;;6.37;42.88;99801.41;4935829;29;20143;-79
2022/03/24 10:34:42;;;;;;;11.63;8.25;;;;;;;6.19;43.58;99799.75;4936555;29;20075;-78
2022/03/24 10:37:12;;;;;;;12.50;7.68;;;;;;;6.28;44.14;99804.53;4950900;29;20043;-79
2022/03/24 10:39:40;;;;;;;12.77;7.57;;;;;;;6.28;43.82;99807.19;4936098;29;20061;-78
2022/03/24 10:42:11;;;;;;;15.57;8.57;;;;;;;6.43;43.90;99803.72;4918941;29;20043;-79
2022/03/24 10:44:59;;;;;;;11.73;8.40;;;;;;;6.81;43.01;99800.69;4934484;29;20298;-78
2022/03/24 10:47:39;;;;;;;14.70;8.82;;;;;;;6.99;42.07;99799.63;4919055;29;20609;-80
2022/03/24 10:50:28;;;;;;;10.52;7.80;;;;;;;7.02;41.93;99804.75;4935946;29;20460;-79
2022/03/24 10:53:01;;;;;;;13.05;7.85;;;;;;;6.76;42.61;99800.09;4936201;29;20131;-79
2022/03/24 10:55:57;;;;;;;9.60;7.20;;;;;;;6.96;42.32;99805.13;4934823;29;20522;-79
2022/03/24 10:58:50;;;;;;;12.38;7.65;;;;;;;6.99;42.05;99796.94;4951118;29;20039;-78
2022/03/24 11:01:19;;;;;;;11.70;7.78;;;;;;;6.88;41.83;99780.78;4928108;29;20072;-79
2022/03/24 11:03:45;;;;;;;11.48;7.47;;;;;;;6.63;42.26;99796.44;4950302;29;20051;-78
2022/03/24 11:06:17;;;;;;;11.05;7.93;;;;;;;6.96;42.36;99805.13;4918838;29;20066;-82
2022/03/24 11:08:50;;;;;;;12.52;8.13;;;;;;;6.73;42.05;99794.94;4950585;29;20050;-79
2022/03/24 11:11:16;;;;;;;16.67;7.47;;;;;;;6.85;42.08;99810.22;4936011;29;20490;-79
2022/03/24 11:13:52;;;;;;;13.18;8.32;;;;;;;6.60;42.46;99807.22;4950356;29;20058;-79
2022/03/24 11:16:23;;;;;;;10.57;6.75;;;;;;;6.54;42.17;99819.91;4934473;29;20044;-79
2022/03/24 11:18:50;;;;;;;12.50;7.88;;;;;;;6.55;42.45;99797.72;4936071;29;20047;-77
2022/03/24 11:21:20;;;;;;;14.45;7.90;;;;;;;6.87;42.12;99805.66;4934441;29;20487;-79
2022/03/24 11:23:47;;;;;;;14.13;8.35;;;;;;;7.25;41.52;99810.53;4918589;29;20498;-79
2022/03/24 11:26:13;;;;;;;11.23;7.53;;;;;;;7.38;41.40;99814.19;4924979;29;20063;-80
2022/03/24 11:28:40;;;;;;;11.70;7.07;;;;;;;7.57;40.61;99826.41;4916821;29;20059;-80
2022/03/24 11:31:12;;;;;;;12.93;7.50;;;;;;;7.20;40.87;99823.25;4914993;29;20044;-79
2022/03/24 11:33:50;;;;;;;13.45;7.80;;;;;;;7.00;41.06;99811.97;4915222;29;20047;-80